Agua Fria, New Mexico
Current Conditions -  °F | °C
As of 7:53 AM on Wednesday 26 Nov 2014 (Local Time) from KSAF Reporting Station
Clear Clear  
Wind Chill: 25°   Ceiling: Unl
Heat Index: 32°   Visibility: 10mi
Dew Point: 11°   Wind: 8mph
Humidity: 42%   Direction: 240°WSW
Pressure: 30.32"   Gusts: NA
Location:  35.7017°N, 105.921°W
Report Text: KSAF 261453Z 24007KT 10SM CLR 00/M12 A3032 RMK AO2 SLP267 T00001117 51018
Loading
Personal Weather Stations






























Interactive Weather Map New forecast layout! Learn more

10-Day Weather Forecast

Advertisements
Track Severe Weather on mobile